sensor_id;sensor_type;location;lat;lon;timestamp;pressure;altitude;pressure_sealevel;temperature;humidity
18436;BME280;9346;52.006;4.720;2022-08-20T00:00:54;101515.63;;;21.23;100.00
18436;BME280;9346;52.006;4.720;2022-08-20T00:03:25;101519.59;;;21.22;100.00
18436;BME280;9346;52.006;4.720;2022-08-20T00:05:55;101524.38;;;21.22;100.00
18436;BME280;9346;52.006;4.720;2022-08-20T00:08:22;101521.56;;;21.22;100.00
18436;BME280;9346;52.006;4.720;2022-08-20T00:10:50;101524.38;;;21.22;100.00
18436;BME280;9346;52.006;4.720;2022-08-20T00:13:22;101525.19;;;21.22;100.00
18436;BME280;9346;52.006;4.720;2022-08-20T00:15:50;101524.38;;;21.22;100.00
18436;BME280;9346;52.006;4.720;2022-08-20T00:18:18;101527.16;;;21.22;100.00
18436;BME280;9346;52.006;4.720;2022-08-20T00:20:48;101525.19;;;21.22;100.00
18436;BME280;9346;52.006;4.720;2022-08-20T00:23:16;101532.44;;;21.23;100.00
18436;BME280;9346;52.006;4.720;2022-08-20T00:25:44;101536.41;;;21.22;100.00
18436;BME280;9346;52.006;4.720;2022-08-20T00:28:12;101530.81;;;21.22;100.00
18436;BME280;9346;52.006;4.720;2022-08-20T00:30:42;101530.81;;;21.22;100.00
18436;BME280;9346;52.006;4.720;2022-08-20T00:33:12;101525.53;;;21.21;100.00
18436;BME280;9346;52.006;4.720;2022-08-20T00:35:42;101526.34;;;21.21;100.00
18436;BME280;9346;52.006;4.720;2022-08-20T00:38:09;101534.72;;;21.21;100.00
18436;BME280;9346;52.006;4.720;2022-08-20T00:40:39;101537.88;;;21.20;100.00
18436;BME280;9346;52.006;4.720;2022-08-20T00:43:24;101538.38;;;21.22;100.00
18436;BME280;9346;52.006;4.720;2022-08-20T00:45:53;101537.06;;;21.19;100.00
18436;BME280;9346;52.006;4.720;2022-08-20T00:48:22;101531.78;;;21.18;100.00
18436;BME280;9346;52.006;4.720;2022-08-20T00:50:49;101524.50;;;21.17;100.00
18436;BME280;9346;52.006;4.720;2022-08-20T00:53:17;101514.66;;;21.11;100.00
18436;BME280;9346;52.006;4.720;2022-08-20T00:55:46;101518.25;;;21.11;100.00
18436;BME280;9346;52.006;4.720;2022-08-20T00:58:13;101524.50;;;21.08;100.00
18436;BME280;9346;52.006;4.720;2022-08-20T01:00:44;101520.41;;;21.06;100.00
18436;BME280;9346;52.006;4.720;2022-08-20T01:03:15;101514.47;;;20.99;100.00
18436;BME280;9346;52.006;4.720;2022-08-20T01:05:46;101507.47;;;20.88;100.00
18436;BME280;9346;52.006;4.720;2022-08-20T01:08:15;101515.22;;;20.82;100.00
18436;BME280;9346;52.006;4.720;2022-08-20T01:10:44;101510.09;;;20.76;100.00
18436;BME280;9346;52.006;4.720;2022-08-20T01:13:17;101503.50;;;20.72;100.00
18436;BME280;9346;52.006;4.720;2022-08-20T01:15:47;101506.59;;;20.62;100.00
18436;BME280;9346;52.006;4.720;2022-08-20T01:18:19;101500.34;;;20.56;100.00
18436;BME280;9346;52.006;4.720;2022-08-20T01:20:48;101506.75;;;20.57;100.00
18436;BME280;9346;52.006;4.720;2022-08-20T01:23:21;101507.41;;;20.54;100.00
18436;BME280;9346;52.006;4.720;2022-08-20T01:26:00;101499.16;;;20.49;100.00
18436;BME280;9346;52.006;4.720;2022-08-20T01:28:33;101496.00;;;20.42;100.00
18436;BME280;9346;52.006;4.720;2022-08-20T01:31:03;101497.31;;;20.44;100.00
18436;BME280;9346;52.006;4.720;2022-08-20T01:33:31;101499.78;;;20.46;100.00
18436;BME280;9346;52.006;4.720;2022-08-20T01:35:58;101499.97;;;20.49;100.00
18436;BME280;9346;52.006;4.720;2022-08-20T01:38:27;101508.91;;;20.51;100.00
18436;BME280;9346;52.006;4.720;2022-08-20T01:41:06;101509.25;;;20.58;100.00
18436;BME280;9346;52.006;4.720;2022-08-20T01:43:37;101509.25;;;20.58;100.00
18436;BME280;9346;52.006;4.720;2022-08-20T01:46:06;101503.63;;;20.58;100.00
18436;BME280;9346;52.006;4.720;2022-08-20T01:48:33;101500.34;;;20.56;100.00
18436;BME280;9346;52.006;4.720;2022-08-20T01:51:05;101501.63;;;20.50;100.00
18436;BME280;9346;52.006;4.720;2022-08-20T01:53:36;101495.03;;;20.46;100.00
18436;BME280;9346;52.006;4.720;2022-08-20T01:56:08;101488.94;;;20.44;100.00
18436;BME280;9346;52.006;4.720;2022-08-20T01:58:38;101495.16;;;20.41;100.00
18436;BME280;9346;52.006;4.720;2022-08-20T02:01:05;101497.81;;;20.38;100.00
18436;BME280;9346;52.006;4.720;2022-08-20T02:03:33;101502.72;;;20.32;100.00
18436;BME280;9346;52.006;4.720;2022-08-20T02:06:00;101501.56;;;20.33;100.00
18436;BME280;9346;52.006;4.720;2022-08-20T02:08:27;101518.03;;;20.35;100.00
18436;BME280;9346;52.006;4.720;2022-08-20T02:10:57;101516.56;;;20.37;100.00
18436;BME280;9346;52.006;4.720;2022-08-20T02:13:26;101518.19;;;20.38;100.00
18436;BME280;9346;52.006;4.720;2022-08-20T02:15:53;101520.19;;;20.38;100.00
18436;BME280;9346;52.006;4.720;2022-08-20T02:18:20;101513.59;;;20.34;100.00
18436;BME280;9346;52.006;4.720;2022-08-20T02:20:47;101509.47;;;20.31;100.00
18436;BME280;9346;52.006;4.720;2022-08-20T02:23:16;101506.19;;;20.29;100.00
18436;BME280;9346;52.006;4.720;2022-08-20T02:25:45;101504.50;;;20.28;100.00
18436;BME280;9346;52.006;4.720;2022-08-20T02:28:14;101502.53;;;20.29;100.00
18436;BME280;9346;52.006;4.720;2022-08-20T02:30:48;101498.25;;;20.31;100.00
18436;BME280;9346;52.006;4.720;2022-08-20T02:33:17;101500.25;;;20.31;100.00
18436;BME280;9346;52.006;4.720;2022-08-20T02:35:46;101496.94;;;20.29;100.00
18436;BME280;9346;52.006;4.720;2022-08-20T02:38:14;101500.56;;;20.29;100.00
18436;BME280;9346;52.006;4.720;2022-08-20T02:40:42;101498.59;;;20.30;100.00
18436;BME280;9346;52.006;4.720;2022-08-20T02:43:10;101496.94;;;20.29;100.00
18436;BME280;9346;52.006;4.720;2022-08-20T02:45:39;101503.38;;;20.29;100.00
18436;BME280;9346;52.006;4.720;2022-08-20T02:48:12;101515.69;;;20.28;100.00
18436;BME280;9346;52.006;4.720;2022-08-20T02:50:46;101511.25;;;20.27;100.00
18436;BME280;9346;52.006;4.720;2022-08-20T02:53:14;101510.75;;;20.25;100.00
18436;BME280;9346;52.006;4.720;2022-08-20T02:55:42;101508.94;;;20.21;100.00
18436;BME280;9346;52.006;4.720;2022-08-20T02:58:09;101508.75;;;20.17;100.00
18436;BME280;9346;52.006;4.720;2022-08-20T03:00:37;101514.16;;;20.14;100.00
18436;BME280;9346;52.006;4.720;2022-08-20T03:03:06;101511.16;;;20.10;100.00
18436;BME280;9346;52.006;4.720;2022-08-20T03:05:34;101512.63;;;20.08;100.00
18436;BME280;9346;52.006;4.720;2022-08-20T03:08:02;101512.94;;;20.06;100.00
18436;BME280;9346;52.006;4.720;2022-08-20T03:10:31;101510.78;;;20.03;100.00
18436;BME280;9346;52.006;4.720;2022-08-20T03:12:59;101512.56;;;19.99;100.00
18436;BME280;9346;52.006;4.720;2022-08-20T03:15:27;101513.19;;;19.96;100.00
18436;BME280;9346;52.006;4.720;2022-08-20T03:17:55;101516.00;;;19.96;100.00
18436;BME280;9346;52.006;4.720;2022-08-20T03:20:23;101511.06;;;19.93;100.00
18436;BME280;9346;52.006;4.720;2022-08-20T03:22:52;101512.03;;;19.88;100.00
18436;BME280;9346;52.006;4.720;2022-08-20T03:25:19;101511.84;;;19.85;100.00
18436;BME280;9346;52.006;4.720;2022-08-20T03:27:46;101509.34;;;19.83;100.00
18436;BME280;9346;52.006;4.720;2022-08-20T03:30:15;101515.78;;;19.84;100.00
18436;BME280;9346;52.006;4.720;2022-08-20T03:32:43;101516.09;;;19.82;100.00
18436;BME280;9346;52.006;4.720;2022-08-20T03:35:12;101517.53;;;19.80;100.00
18436;BME280;9346;52.006;4.720;2022-08-20T03:40:51;101527.22;;;19.74;100.00
18436;BME280;9346;52.006;4.720;2022-08-20T03:43:18;101517.81;;;19.70;100.00
18436;BME280;9346;52.006;4.720;2022-08-20T03:45:45;101523.53;;;19.65;100.00
18436;BME280;9346;52.006;4.720;2022-08-20T03:48:14;101531.41;;;19.63;100.00
18436;BME280;9346;52.006;4.720;2022-08-20T03:50:43;101527.59;;;19.59;100.00
18436;BME280;9346;52.006;4.720;2022-08-20T03:53:12;101534.97;;;19.55;100.00
18436;BME280;9346;52.006;4.720;2022-08-20T03:55:40;101533.94;;;19.51;100.00
18436;BME280;9346;52.006;4.720;2022-08-20T03:58:09;101532.31;;;19.50;100.00
18436;BME280;9346;52.006;4.720;2022-08-20T04:00:40;101530.44;;;19.45;100.00
18436;BME280;9346;52.006;4.720;2022-08-20T04:03:07;101530.13;;;19.47;100.00
18436;BME280;9346;52.006;4.720;2022-08-20T04:05:36;101530.44;;;19.45;100.00
18436;BME280;9346;52.006;4.720;2022-08-20T04:08:06;101535.25;;;19.45;100.00
18436;BME280;9346;52.006;4.720;2022-08-20T04:10:34;101533.56;;;19.44;100.00
18436;BME280;9346;52.006;4.720;2022-08-20T04:13:02;101530.28;;;19.42;100.00
18436;BME280;9346;52.006;4.720;2022-08-20T04:15:32;101535.03;;;19.41;100.00
18436;BME280;9346;52.006;4.720;2022-08-20T04:18:00;101541.78;;;19.40;100.00
18436;BME280;9346;52.006;4.720;2022-08-20T04:20:28;101551.28;;;19.39;100.00
18436;BME280;9346;52.006;4.720;2022-08-20T04:22:56;101548.31;;;19.36;100.00
18436;BME280;9346;52.006;4.720;2022-08-20T04:25:23;101553.06;;;19.35;100.00
18436;BME280;9346;52.006;4.720;2022-08-20T04:27:50;101554.53;;;19.33;100.00
18436;BME280;9346;52.006;4.720;2022-08-20T04:30:18;101548.72;;;19.29;100.00
18436;BME280;9346;52.006;4.720;2022-08-20T04:32:47;101551.03;;;19.27;100.00
18436;BME280;9346;52.006;4.720;2022-08-20T04:35:14;101549.94;;;19.23;100.00
18436;BME280;9346;52.006;4.720;2022-08-20T04:37:43;101548.94;;;19.19;100.00
18436;BME280;9346;52.006;4.720;2022-08-20T04:40:15;101554.34;;;19.16;100.00
18436;BME280;9346;52.006;4.720;2022-08-20T04:43:00;101554.97;;;19.13;100.00
18436;BME280;9346;52.006;4.720;2022-08-20T04:45:29;101558.69;;;19.08;100.00
18436;BME280;9346;52.006;4.720;2022-08-20T04:48:00;101569.34;;;19.06;100.00
18436;BME280;9346;52.006;4.720;2022-08-20T04:50:30;101566.69;;;19.01;100.00
18436;BME280;9346;52.006;4.720;2022-08-20T04:52:58;101575.84;;;19.02;100.00
18436;BME280;9346;52.006;4.720;2022-08-20T04:55:25;101571.72;;;18.99;100.00
18436;BME280;9346;52.006;4.720;2022-08-20T04:57:52;101577.94;;;18.96;100.00
18436;BME280;9346;52.006;4.720;2022-08-20T05:00:20;101583.84;;;18.95;100.00
18436;BME280;9346;52.006;4.720;2022-08-20T05:02:47;101584.47;;;18.92;100.00
18436;BME280;9346;52.006;4.720;2022-08-20T05:05:16;101582.50;;;18.92;100.00
18436;BME280;9346;52.006;4.720;2022-08-20T05:07:44;101582.28;;;18.89;100.00
18436;BME280;9346;52.006;4.720;2022-08-20T05:10:14;101590.97;;;18.87;100.00
18436;BME280;9346;52.006;4.720;2022-08-20T05:12:42;101587.06;;;18.88;100.00
18436;BME280;9346;52.006;4.720;2022-08-20T05:15:10;101595.75;;;18.87;100.00
18436;BME280;9346;52.006;4.720;2022-08-20T05:17:38;101594.06;;;18.86;100.00
18436;BME280;9346;52.006;4.720;2022-08-20T05:20:08;101598.00;;;18.85;100.00
18436;BME280;9346;52.006;4.720;2022-08-20T05:22:37;101601.94;;;18.84;100.00
18436;BME280;9346;52.006;4.720;2022-08-20T05:25:04;101597.78;;;18.81;100.00
18436;BME280;9346;52.006;4.720;2022-08-20T05:27:31;101605.84;;;18.83;100.00
18436;BME280;9346;52.006;4.720;2022-08-20T05:29:59;101607.00;;;18.82;100.00
18436;BME280;9346;52.006;4.720;2022-08-20T05:32:29;101612.28;;;18.83;100.00
18436;BME280;9346;52.006;4.720;2022-08-20T05:34:56;101617.34;;;18.81;100.00
18436;BME280;9346;52.006;4.720;2022-08-20T05:37:24;101622.59;;;18.83;100.00
18436;BME280;9346;52.006;4.720;2022-08-20T05:39:53;101613.44;;;18.82;100.00
18436;BME280;9346;52.006;4.720;2022-08-20T05:42:20;101617.03;;;18.83;100.00
18436;BME280;9346;52.006;4.720;2022-08-20T05:44:47;101622.09;;;18.81;100.00
18436;BME280;9346;52.006;4.720;2022-08-20T05:47:14;101626.84;;;18.80;100.00
18436;BME280;9346;52.006;4.720;2022-08-20T05:49:42;101630.47;;;18.81;100.00
18436;BME280;9346;52.006;4.720;2022-08-20T05:52:11;101637.09;;;18.85;100.00
18436;BME280;9346;52.006;4.720;2022-08-20T05:54:38;101631.41;;;18.90;100.00
18436;BME280;9346;52.006;4.720;2022-08-20T05:57:06;101629.66;;;18.94;100.00
18436;BME280;9346;52.006;4.720;2022-08-20T05:59:33;101626.72;;;18.99;100.00
18436;BME280;9346;52.006;4.720;2022-08-20T06:02:01;101632.53;;;19.02;100.00
18436;BME280;9346;52.006;4.720;2022-08-20T06:04:48;101621.91;;;19.04;100.00
18436;BME280;9346;52.006;4.720;2022-08-20T06:07:13;101626.19;;;19.10;100.00
18436;BME280;9346;52.006;4.720;2022-08-20T06:09:41;101620.31;;;19.12;100.00
18436;BME280;9346;52.006;4.720;2022-08-20T06:12:09;101625.28;;;19.15;100.00
18436;BME280;9346;52.006;4.720;2022-08-20T06:14:36;101619.38;;;19.16;100.00
18436;BME280;9346;52.006;4.720;2022-08-20T06:17:05;101615.16;;;19.19;100.00
18436;BME280;9346;52.006;4.720;2022-08-20T06:19:33;101612.53;;;19.22;100.00
18436;BME280;9346;52.006;4.720;2022-08-20T06:22:00;101615.56;;;19.26;100.00
18436;BME280;9346;52.006;4.720;2022-08-20T06:24:27;101614.13;;;19.28;100.00
18436;BME280;9346;52.006;4.720;2022-08-20T06:26:55;101606.56;;;19.29;100.00
18436;BME280;9346;52.006;4.720;2022-08-20T06:29:25;101602.63;;;19.30;100.00
18436;BME280;9346;52.006;4.720;2022-08-20T06:31:52;101598.38;;;19.32;100.00
18436;BME280;9346;52.006;4.720;2022-08-20T06:34:19;101595.16;;;19.39;100.00
18436;BME280;9346;52.006;4.720;2022-08-20T06:36:46;101595.03;;;19.44;100.00
18436;BME280;9346;52.006;4.720;2022-08-20T06:39:13;101593.78;;;19.50;100.00
18436;BME280;9346;52.006;4.720;2022-08-20T06:41:42;101599.25;;;19.55;100.00
18436;BME280;9346;52.006;4.720;2022-08-20T06:44:09;101590.25;;;19.58;100.00
18436;BME280;9346;52.006;4.720;2022-08-20T06:46:38;101594.03;;;19.62;100.00
18436;BME280;9346;52.006;4.720;2022-08-20T06:49:06;101596.38;;;19.68;100.00
18436;BME280;9346;52.006;4.720;2022-08-20T06:51:33;101594.31;;;19.74;100.00
18436;BME280;9346;52.006;4.720;2022-08-20T06:54:01;101596.66;;;19.80;100.00
18436;BME280;9346;52.006;4.720;2022-08-20T06:56:29;101601.81;;;19.87;100.00
18436;BME280;9346;52.006;4.720;2022-08-20T06:58:56;101594.75;;;19.89;100.00
18436;BME280;9346;52.006;4.720;2022-08-20T07:01:24;101599.38;;;19.94;100.00
18436;BME280;9346;52.006;4.720;2022-08-20T07:03:52;101602.66;;;19.96;100.00
18436;BME280;9346;52.006;4.720;2022-08-20T07:06:19;101606.00;;;19.98;100.00
18436;BME280;9346;52.006;4.720;2022-08-20T07:08:46;101597.47;;;20.03;100.00
18436;BME280;9346;52.006;4.720;2022-08-20T07:11:13;101609.34;;;20.09;100.00
18436;BME280;9346;52.006;4.720;2022-08-20T07:13:40;101598.56;;;20.16;100.00
18436;BME280;9346;52.006;4.720;2022-08-20T07:16:06;101604.38;;;20.19;100.00
18436;BME280;9346;52.006;4.720;2022-08-20T07:18:33;101609.81;;;20.24;100.00
18436;BME280;9346;52.006;4.720;2022-08-20T07:21:02;101611.97;;;20.27;100.00
18436;BME280;9346;52.006;4.720;2022-08-20T07:23:29;101597.53;;;20.34;100.00
18436;BME280;9346;52.006;4.720;2022-08-20T07:25:56;101607.09;;;20.41;100.00
18436;BME280;9346;52.006;4.720;2022-08-20T07:28:25;101613.22;;;20.43;100.00
18436;BME280;9346;52.006;4.720;2022-08-20T07:30:53;101609.78;;;20.46;100.00
18436;BME280;9346;52.006;4.720;2022-08-20T07:33:37;101611.94;;;20.49;100.00
18436;BME280;9346;52.006;4.720;2022-08-20T07:36:08;101618.41;;;20.58;100.00
18436;BME280;9346;52.006;4.720;2022-08-20T07:38:35;101613.28;;;20.60;100.00
18436;BME280;9346;52.006;4.720;2022-08-20T07:41:05;101618.22;;;20.63;100.00
18436;BME280;9346;52.006;4.720;2022-08-20T07:43:34;101616.47;;;20.67;100.00
18436;BME280;9346;52.006;4.720;2022-08-20T07:46:02;101614.78;;;20.66;100.00
18436;BME280;9346;52.006;4.720;2022-08-20T07:48:34;101618.59;;;20.70;100.00
18436;BME280;9346;52.006;4.720;2022-08-20T07:51:07;101611.22;;;20.74;100.00
18436;BME280;9346;52.006;4.720;2022-08-20T07:53:36;101613.53;;;20.81;100.00
18436;BME280;9346;52.006;4.720;2022-08-20T07:56:10;101617.00;;;20.86;100.00
18436;BME280;9346;52.006;4.720;2022-08-20T07:58:38;101620.63;;;20.87;100.00
18436;BME280;9346;52.006;4.720;2022-08-20T08:01:05;101619.47;;;20.88;100.00
18436;BME280;9346;52.006;4.720;2022-08-20T08:03:33;101631.19;;;20.90;100.00
18436;BME280;9346;52.006;4.720;2022-08-20T08:06:02;101634.84;;;20.90;100.00
18436;BME280;9346;52.006;4.720;2022-08-20T08:08:31;101635.03;;;20.94;100.00
18436;BME280;9346;52.006;4.720;2022-08-20T08:11:01;101636.84;;;20.98;100.00
18436;BME280;9346;52.006;4.720;2022-08-20T08:13:33;101639.00;;;21.01;100.00
18436;BME280;9346;52.006;4.720;2022-08-20T08:16:01;101626.66;;;21.02;100.00
18436;BME280;9346;52.006;4.720;2022-08-20T08:18:33;101626.31;;;21.04;100.00
18436;BME280;9346;52.006;4.720;2022-08-20T08:21:03;101630.31;;;21.11;100.00
18436;BME280;9346;52.006;4.720;2022-08-20T08:23:34;101631.81;;;21.17;100.00
18436;BME280;9346;52.006;4.720;2022-08-20T08:26:01;101632.00;;;21.21;100.00
18436;BME280;9346;52.006;4.720;2022-08-20T08:28:29;101631.00;;;21.25;100.00
18436;BME280;9346;52.006;4.720;2022-08-20T08:30:58;101626.88;;;21.31;100.00
18436;BME280;9346;52.006;4.720;2022-08-20T08:33:29;101638.78;;;21.37;100.00
18436;BME280;9346;52.006;4.720;2022-08-20T08:35:59;101631.84;;;21.43;100.00
18436;BME280;9346;52.006;4.720;2022-08-20T08:38:27;101638.47;;;21.47;100.00
18436;BME280;9346;52.006;4.720;2022-08-20T08:40:57;101638.28;;;21.52;100.00
18436;BME280;9346;52.006;4.720;2022-08-20T08:43:31;101634.03;;;21.54;100.00
18436;BME280;9346;52.006;4.720;2022-08-20T08:46:04;101647.69;;;21.56;100.00
18436;BME280;9346;52.006;4.720;2022-08-20T08:48:34;101643.75;;;21.57;100.00
18436;BME280;9346;52.006;4.720;2022-08-20T08:51:03;101645.72;;;21.56;100.00
18436;BME280;9346;52.006;4.720;2022-08-20T08:53:40;101643.09;;;21.60;100.00
18436;BME280;9346;52.006;4.720;2022-08-20T08:56:10;101646.38;;;21.62;100.00
18436;BME280;9346;52.006;4.720;2022-08-20T08:58:39;101649.34;;;21.65;100.00
18436;BME280;9346;52.006;4.720;2022-08-20T09:01:09;101647.38;;;21.66;100.00
18436;BME280;9346;52.006;4.720;2022-08-20T09:03:44;101642.59;;;21.66;100.00
18436;BME280;9346;52.006;4.720;2022-08-20T09:06:14;101649.88;;;21.67;100.00
18436;BME280;9346;52.006;4.720;2022-08-20T09:08:48;101651.03;;;21.75;100.00
18436;BME280;9346;52.006;4.720;2022-08-20T09:11:19;101643.97;;;21.77;100.00
18436;BME280;9346;52.006;4.720;2022-08-20T09:13:46;101647.56;;;21.78;100.00
18436;BME280;9346;52.006;4.720;2022-08-20T09:16:13;101649.22;;;21.79;100.00
18436;BME280;9346;52.006;4.720;2022-08-20T09:18:41;101652.38;;;21.86;100.00
18436;BME280;9346;52.006;4.720;2022-08-20T09:21:08;101652.19;;;21.91;100.00
18436;BME280;9346;52.006;4.720;2022-08-20T09:23:35;101652.03;;;21.96;100.00
18436;BME280;9346;52.006;4.720;2022-08-20T09:26:02;101651.03;;;22.01;100.00
18436;BME280;9346;52.006;4.720;2022-08-20T09:28:31;101645.44;;;22.01;100.00
18436;BME280;9346;52.006;4.720;2022-08-20T09:30:58;101642.94;;;22.08;100.00
18436;BME280;9346;52.006;4.720;2022-08-20T09:33:25;101650.38;;;22.12;100.00
18436;BME280;9346;52.006;4.720;2022-08-20T09:35:54;101644.41;;;22.14;100.00
18436;BME280;9346;52.006;4.720;2022-08-20T09:38:22;101649.06;;;22.10;100.00
18436;BME280;9346;52.006;4.720;2022-08-20T09:40:49;101652.50;;;22.24;100.00
18436;BME280;9346;52.006;4.720;2022-08-20T09:43:16;101646.22;;;22.27;100.00
18436;BME280;9346;52.006;4.720;2022-08-20T09:48:11;101643.19;;;22.49;100.00
18436;BME280;9346;52.006;4.720;2022-08-20T09:50:40;101648.31;;;22.55;100.00
18436;BME280;9346;52.006;4.720;2022-08-20T09:53:09;101646.00;;;22.57;100.00
18436;BME280;9346;52.006;4.720;2022-08-20T09:55:38;101638.06;;;22.59;100.00
18436;BME280;9346;52.006;4.720;2022-08-20T09:58:16;101636.25;;;22.63;100.00
18436;BME280;9346;52.006;4.720;2022-08-20T10:00:47;101638.06;;;22.59;100.00
18436;BME280;9346;52.006;4.720;2022-08-20T10:03:14;101637.41;;;22.54;100.00
18436;BME280;9346;52.006;4.720;2022-08-20T10:05:41;101636.59;;;22.53;100.00
18436;BME280;9346;52.006;4.720;2022-08-20T10:08:10;101626.84;;;22.51;100.00
18436;BME280;9346;52.006;4.720;2022-08-20T10:10:37;101629.81;;;22.54;100.00
18436;BME280;9346;52.006;4.720;2022-08-20T10:13:04;101636.56;;;22.62;100.00
18436;BME280;9346;52.006;4.720;2022-08-20T10:15:31;101631.75;;;22.71;100.00
18436;BME280;9346;52.006;4.720;2022-08-20T10:18:01;101639.00;;;22.72;100.00
18436;BME280;9346;52.006;4.720;2022-08-20T10:20:30;101639.47;;;22.74;100.00
18436;BME280;9346;52.006;4.720;2022-08-20T10:22:57;101634.69;;;22.74;100.00
18436;BME280;9346;52.006;4.720;2022-08-20T10:25:24;101632.38;;;22.76;100.00
18436;BME280;9346;52.006;4.720;2022-08-20T10:27:51;101628.06;;;22.79;100.00
18436;BME280;9346;52.006;4.720;2022-08-20T10:30:18;101628.69;;;22.84;100.00
18436;BME280;9346;52.006;4.720;2022-08-20T10:32:45;101628.88;;;22.88;100.00
18436;BME280;9346;52.006;4.720;2022-08-20T10:35:13;101635.78;;;22.90;100.00
18436;BME280;9346;52.006;4.720;2022-08-20T10:37:42;101627.22;;;22.87;100.00
18436;BME280;9346;52.006;4.720;2022-08-20T10:40:10;101634.66;;;22.83;100.00
18436;BME280;9346;52.006;4.720;2022-08-20T10:42:37;101646.22;;;22.81;100.00
18436;BME280;9346;52.006;4.720;2022-08-20T10:45:05;101639.47;;;22.82;100.00
18436;BME280;9346;52.006;4.720;2022-08-20T10:47:32;101637.34;;;22.79;100.00
18436;BME280;9346;52.006;4.720;2022-08-20T10:50:04;101629.25;;;22.78;100.00
18436;BME280;9346;52.006;4.720;2022-08-20T10:52:33;101621.28;;;22.80;100.00
18436;BME280;9346;52.006;4.720;2022-08-20T10:55:00;101633.66;;;22.87;100.00
18436;BME280;9346;52.006;4.720;2022-08-20T10:57:31;101629.66;;;22.97;100.00
18436;BME280;9346;52.006;4.720;2022-08-20T10:59:59;101628.28;;;23.03;100.00
18436;BME280;9346;52.006;4.720;2022-08-20T11:02:27;101621.97;;;23.06;100.00
18436;BME280;9346;52.006;4.720;2022-08-20T11:04:54;101631.19;;;23.15;100.00
18436;BME280;9346;52.006;4.720;2022-08-20T11:07:25;101635.13;;;23.22;100.00
18436;BME280;9346;52.006;4.720;2022-08-20T11:09:57;101635.09;;;23.31;100.00
18436;BME280;9346;52.006;4.720;2022-08-20T11:12:25;101635.88;;;23.40;100.00
18436;BME280;9346;52.006;4.720;2022-08-20T11:14:53;101642.44;;;23.44;100.00
18436;BME280;9346;52.006;4.720;2022-08-20T11:17:21;101639.16;;;23.42;100.00
18436;BME280;9346;52.006;4.720;2022-08-20T11:19:48;101641.50;;;23.40;100.00
18436;BME280;9346;52.006;4.720;2022-08-20T11:22:15;101644.47;;;23.35;100.00
18436;BME280;9346;52.006;4.720;2022-08-20T11:24:42;101640.25;;;23.29;100.00
18436;BME280;9346;52.006;4.720;2022-08-20T11:27:14;101645.88;;;23.29;100.00
18436;BME280;9346;52.006;4.720;2022-08-20T11:29:43;101649.03;;;23.27;100.00
18436;BME280;9346;52.006;4.720;2022-08-20T11:32:10;101639.75;;;23.27;100.00
18436;BME280;9346;52.006;4.720;2022-08-20T11:34:37;101643.88;;;23.29;100.00
18436;BME280;9346;52.006;4.720;2022-08-20T11:37:04;101644.34;;;23.31;100.00
18436;BME280;9346;52.006;4.720;2022-08-20T11:39:31;101636.06;;;23.35;100.00
18436;BME280;9346;52.006;4.720;2022-08-20T11:41:58;101629.06;;;23.41;100.00
18436;BME280;9346;52.006;4.720;2022-08-20T11:44:27;101643.28;;;23.44;100.00
18436;BME280;9346;52.006;4.720;2022-08-20T11:46:54;101639.44;;;23.49;100.00
18436;BME280;9346;52.006;4.720;2022-08-20T11:49:24;101633.13;;;23.52;100.00
18436;BME280;9346;52.006;4.720;2022-08-20T11:51:51;101639.22;;;23.54;100.00
18436;BME280;9346;52.006;4.720;2022-08-20T11:54:18;101639.72;;;23.56;100.00
18436;BME280;9346;52.006;4.720;2022-08-20T11:56:45;101641.00;;;23.58;100.00
18436;BME280;9346;52.006;4.720;2022-08-20T11:59:12;101643.97;;;23.62;100.00
18436;BME280;9346;52.006;4.720;2022-08-20T12:01:40;101638.47;;;23.65;100.00
18436;BME280;9346;52.006;4.720;2022-08-20T12:04:07;101638.47;;;23.65;100.00
18436;BME280;9346;52.006;4.720;2022-08-20T12:06:34;101637.66;;;23.65;100.00
18436;BME280;9346;52.006;4.720;2022-08-20T12:09:00;101634.84;;;23.65;100.00
18436;BME280;9346;52.006;4.720;2022-08-20T12:11:28;101642.81;;;23.63;100.00
18436;BME280;9346;52.006;4.720;2022-08-20T12:13:54;101647.13;;;23.60;100.00
18436;BME280;9346;52.006;4.720;2022-08-20T12:16:21;101643.16;;;23.61;100.00
18436;BME280;9346;52.006;4.720;2022-08-20T12:18:50;101643.16;;;23.61;100.00
18436;BME280;9346;52.006;4.720;2022-08-20T12:21:17;101637.66;;;23.65;100.00
18436;BME280;9346;52.006;4.720;2022-08-20T12:23:44;101635.66;;;23.65;100.00
18436;BME280;9346;52.006;4.720;2022-08-20T12:26:11;101642.28;;;23.69;100.00
18436;BME280;9346;52.006;4.720;2022-08-20T12:28:38;101638.28;;;23.70;100.00
18436;BME280;9346;52.006;4.720;2022-08-20T12:31:05;101643.56;;;23.72;100.00
18436;BME280;9346;52.006;4.720;2022-08-20T12:33:32;101643.97;;;23.62;100.00
18436;BME280;9346;52.006;4.720;2022-08-20T12:36:01;101644.84;;;23.54;100.00
18436;BME280;9346;52.006;4.720;2022-08-20T12:38:30;101646.63;;;23.58;100.00
18436;BME280;9346;52.006;4.720;2022-08-20T12:40:57;101650.41;;;23.62;100.00
18436;BME280;9346;52.006;4.720;2022-08-20T12:43:25;101636.69;;;23.61;100.00
18436;BME280;9346;52.006;4.720;2022-08-20T12:45:51;101643.22;;;23.53;100.00
18436;BME280;9346;52.006;4.720;2022-08-20T12:48:18;101651.84;;;23.48;100.00
18436;BME280;9346;52.006;4.720;2022-08-20T12:50:46;101649.72;;;23.45;100.00
18436;BME280;9346;52.006;4.720;2022-08-20T12:53:16;101656.03;;;23.42;100.00
18436;BME280;9346;52.006;4.720;2022-08-20T12:55:43;101658.34;;;23.40;100.00
18436;BME280;9346;52.006;4.720;2022-08-20T12:58:10;101650.25;;;23.38;100.00
18436;BME280;9346;52.006;4.720;2022-08-20T13:00:39;101649.63;;;23.33;100.00
18436;BME280;9346;52.006;4.720;2022-08-20T13:03:09;101650.31;;;23.30;100.00